PWSweather.com
Personal Weather Stations
Station Observations
DW6359
Southwest Cambria, Cambria, WI 53923

Southwest CambriaCambria, WI 53923

Lat: 43.541194, Lon: -89.11275

Elevation: 945

Station Type: Davis Vantage Pro2

http://home.centurytel.net/weathercambria/wxcambria.html

High Low Average
Temperature 17.5°F-8.1°C -6.0°F-21.1°C 7.7°F-13.5°C
Dew Point 14.6°F-9.7°C -8.8°F-22.7°C 1.7°F-16.8°C
Winds 14.0 mph 22.5 kmh Calm Calm 5.0 mph SSW8.0 kmh SSW
Wind Gusts 16.0 mph25.7 kmh -- 2.0 mph3.2 kmh
Humidity 92% 57% 77%
Pressure 30.78 in1042.3 mb 30.29 in1025.7 mb -
Precipitation 0.00 in0.0 mm - -
Hour Temp Dew Point Humidity Winds Wind Gusts Pressure Precip Precip Rate Daily Precip Total
12:00 AM 0.8°F-17.3°C -5.5°F-20.8°C 74% 1.0 mph WNW1.6 kmh WNW -- 30.78 in1042.3 mb 0.00 in0.0 mm 0.00 in0.0 mm 0.00 in0.0 mm
12:05 AM 0.7°F-17.4°C -5.6°F-20.9°C 74% Calm Calm -- 30.78 in1042.3 mb 0.00 in0.0 mm 0.00 in0.0 mm 0.00 in0.0 mm
12:10 AM 0.6°F-17.4°C -5.7°F-20.9°C 74% Calm Calm 2.0 mph3.2 kmh 30.78 in1042.3 mb 0.00 in0.0 mm 0.00 in0.0 mm 0.00 in0.0 mm
12:15 AM 0.3°F-17.6°C -5.7°F-20.9°C 75% 1.0 mph WNW1.6 kmh WNW 2.0 mph3.2 kmh 30.78 in1042.3 mb 0.00 in0.0 mm 0.00 in0.0 mm 0.00 in0.0 mm
12:20 AM 0.1°F-17.7°C -5.9°F-21.1°C 75% Calm Calm -- 30.78 in1042.3 mb 0.00 in0.0 mm 0.00 in0.0 mm 0.00 in0.0 mm
12:25 AM -0.1°F-17.8°C -6.1°F-21.2°C 75% Calm Calm -- 30.78 in1042.3 mb 0.00 in0.0 mm 0.00 in0.0 mm 0.00 in0.0 mm
12:30 AM -0.4°F-18.0°C -6.1°F-21.2°C 76% Calm Calm -- 30.78 in1042.3 mb 0.00 in0.0 mm 0.00 in0.0 mm 0.00 in0.0 mm
12:35 AM -0.5°F-18.1°C -6.2°F-21.2°C 76% Calm Calm -- 30.78 in1042.3 mb 0.00 in0.0 mm 0.00 in0.0 mm 0.00 in0.0 mm
12:40 AM -0.6°F-18.1°C -6.1°F-21.2°C 77% Calm Calm -- 30.78 in1042.3 mb 0.00 in0.0 mm 0.00 in0.0 mm 0.00 in0.0 mm
12:45 AM -0.8°F-18.2°C -6.2°F-21.2°C 77% Calm Calm -- 30.78 in1042.3 mb 0.00 in0.0 mm 0.00 in0.0 mm 0.00 in0.0 mm
12:50 AM -0.9°F-18.3°C -6.3°F-21.3°C 77% Calm Calm -- 30.78 in1042.3 mb 0.00 in0.0 mm 0.00 in0.0 mm 0.00 in0.0 mm
12:55 AM -1.0°F-18.3°C -6.2°F-21.2°C 78% Calm Calm -- 30.78 in1042.3 mb 0.00 in0.0 mm 0.00 in0.0 mm 0.00 in0.0 mm
01:00 AM -1.0°F-18.3°C -6.2°F-21.2°C 78% Calm Calm -- 30.78 in1042.3 mb 0.00 in0.0 mm 0.00 in0.0 mm 0.00 in0.0 mm
01:05 AM -1.1°F-18.4°C -6.3°F-21.3°C 78% Calm Calm -- 30.78 in1042.3 mb 0.00 in0.0 mm 0.00 in0.0 mm 0.00 in0.0 mm
01:10 AM -1.2°F-18.4°C -6.1°F-21.2°C 79% Calm Calm -- 30.77 in1042.0 mb 0.00 in0.0 mm 0.00 in0.0 mm 0.00 in0.0 mm
01:15 AM -1.3°F-18.5°C -6.2°F-21.2°C 79% Calm Calm -- 30.77 in1042.0 mb 0.00 in0.0 mm 0.00 in0.0 mm 0.00 in0.0 mm
01:20 AM -1.4°F-18.6°C -6.3°F-21.3°C 79% Calm Calm -- 30.77 in1042.0 mb 0.00 in0.0 mm 0.00 in0.0 mm 0.00 in0.0 mm
01:25 AM -1.6°F-18.7°C -6.5°F-21.4°C 79% Calm Calm -- 30.77 in1042.0 mb 0.00 in0.0 mm 0.00 in0.0 mm 0.00 in0.0 mm
01:30 AM -1.7°F-18.7°C -6.6°F-21.4°C 79% Calm Calm -- 30.77 in1042.0 mb 0.00 in0.0 mm 0.00 in0.0 mm 0.00 in0.0 mm
01:35 AM -1.8°F-18.8°C -6.4°F-21.3°C 80% Calm Calm -- 30.77 in1042.0 mb 0.00 in0.0 mm 0.00 in0.0 mm 0.00 in0.0 mm
01:40 AM -1.8°F-18.8°C -6.4°F-21.3°C 80% 1.0 mph WNW1.6 kmh WNW -- 30.77 in1042.0 mb 0.00 in0.0 mm 0.00 in0.0 mm 0.00 in0.0 mm
01:45 AM -1.8°F-18.8°C -6.4°F-21.3°C 80% 1.0 mph WNW1.6 kmh WNW -- 30.77 in1042.0 mb 0.00 in0.0 mm 0.00 in0.0 mm 0.00 in0.0 mm
01:50 AM -1.9°F-18.8°C -6.3°F-21.3°C 81% Calm Calm 2.0 mph3.2 kmh 30.77 in1042.0 mb 0.00 in0.0 mm 0.00 in0.0 mm 0.00 in0.0 mm
01:55 AM -2.0°F-18.9°C -6.4°F-21.3°C 81% Calm Calm 2.0 mph3.2 kmh 30.77 in1042.0 mb 0.00 in0.0 mm 0.00 in0.0 mm 0.00 in0.0 mm
02:00 AM -2.1°F-18.9°C -6.5°F-21.4°C 81% Calm Calm -- 30.77 in1042.0 mb 0.00 in0.0 mm 0.00 in0.0 mm 0.00 in0.0 mm
02:05 AM -2.2°F-19.0°C -3.9°F-19.9°C 92% Calm Calm -- 30.77 in1042.0 mb 0.00 in0.0 mm 0.00 in0.0 mm 0.00 in0.0 mm
02:10 AM -2.3°F-19.1°C -6.7°F-21.5°C 81% 1.0 mph WNW1.6 kmh WNW -- 30.77 in1042.0 mb 0.00 in0.0 mm 0.00 in0.0 mm 0.00 in0.0 mm
02:15 AM -2.4°F-19.1°C -6.5°F-21.4°C 82% 2.0 mph WNW3.2 kmh WNW -- 30.77 in1042.0 mb 0.00 in0.0 mm 0.00 in0.0 mm 0.00 in0.0 mm
02:20 AM -2.5°F-19.2°C -6.6°F-21.4°C 82% 1.0 mph WNW1.6 kmh WNW -- 30.77 in1042.0 mb 0.00 in0.0 mm 0.00 in0.0 mm 0.00 in0.0 mm
02:25 AM -2.6°F-19.2°C -6.7°F-21.5°C 82% Calm Calm -- 30.77 in1042.0 mb 0.00 in0.0 mm 0.00 in0.0 mm 0.00 in0.0 mm
02:30 AM -2.6°F-19.2°C -6.7°F-21.5°C 82% Calm Calm -- 30.77 in1042.0 mb 0.00 in0.0 mm 0.00 in0.0 mm 0.00 in0.0 mm
02:35 AM -2.7°F-19.3°C -6.8°F-21.6°C 82% Calm Calm -- 30.77 in1042.0 mb 0.00 in0.0 mm 0.00 in0.0 mm 0.00 in0.0 mm
02:40 AM -2.8°F-19.3°C -6.9°F-21.6°C 82% Calm Calm -- 30.77 in1042.0 mb 0.00 in0.0 mm 0.00 in0.0 mm 0.00 in0.0 mm
02:45 AM -2.8°F-19.3°C -6.9°F-21.6°C 82% Calm Calm -- 30.77 in1042.0 mb 0.00 in0.0 mm 0.00 in0.0 mm 0.00 in0.0 mm
02:50 AM -2.8°F-19.3°C -6.9°F-21.6°C 82% Calm Calm -- 30.77 in1042.0 mb 0.00 in0.0 mm 0.00 in0.0 mm 0.00 in0.0 mm
02:55 AM -2.8°F-19.3°C -6.9°F-21.6°C 82% Calm Calm -- 30.77 in1042.0 mb 0.00 in0.0 mm 0.00 in0.0 mm 0.00 in0.0 mm
03:00 AM -3.0°F-19.4°C -7.1°F-21.7°C 82% Calm Calm -- 30.77 in1042.0 mb 0.00 in0.0 mm 0.00 in0.0 mm 0.00 in0.0 mm
03:05 AM -3.1°F-19.5°C -7.2°F-21.8°C 82% Calm Calm -- 30.78 in1042.3 mb 0.00 in0.0 mm 0.00 in0.0 mm 0.00 in0.0 mm
03:10 AM -3.1°F-19.5°C -7.2°F-21.8°C 82% Calm Calm -- 30.78 in1042.3 mb 0.00 in0.0 mm 0.00 in0.0 mm 0.00 in0.0 mm
03:15 AM -3.2°F-19.6°C -7.0°F-21.7°C 83% Calm Calm -- 30.78 in1042.3 mb 0.00 in0.0 mm 0.00 in0.0 mm 0.00 in0.0 mm
03:20 AM -3.3°F-19.6°C -7.1°F-21.7°C 83% Calm Calm -- 30.78 in1042.3 mb 0.00 in0.0 mm 0.00 in0.0 mm 0.00 in0.0 mm
03:25 AM -3.3°F-19.6°C -7.1°F-21.7°C 83% Calm Calm -- 30.78 in1042.3 mb 0.00 in0.0 mm 0.00 in0.0 mm 0.00 in0.0 mm
03:30 AM -3.4°F-19.7°C -7.2°F-21.8°C 83% Calm Calm -- 30.78 in1042.3 mb 0.00 in0.0 mm 0.00 in0.0 mm 0.00 in0.0 mm
03:35 AM -3.4°F-19.7°C -7.2°F-21.8°C 83% Calm Calm -- 30.78 in1042.3 mb 0.00 in0.0 mm 0.00 in0.0 mm 0.00 in0.0 mm
03:40 AM -3.6°F-19.8°C -7.4°F-21.9°C 83% Calm Calm -- 30.78 in1042.3 mb 0.00 in0.0 mm 0.00 in0.0 mm 0.00 in0.0 mm
03:45 AM -3.6°F-19.8°C -7.4°F-21.9°C 83% Calm Calm -- 30.78 in1042.3 mb 0.00 in0.0 mm 0.00 in0.0 mm 0.00 in0.0 mm
03:50 AM -3.6°F-19.8°C -7.4°F-21.9°C 83% Calm Calm -- 30.78 in1042.3 mb 0.00 in0.0 mm 0.00 in0.0 mm 0.00 in0.0 mm
03:55 AM -3.6°F-19.8°C -7.4°F-21.9°C 83% Calm Calm -- 30.78 in1042.3 mb 0.00 in0.0 mm 0.00 in0.0 mm 0.00 in0.0 mm
04:00 AM -5.6°F-20.9°C -8.2°F-22.3°C 88% Calm Calm -- 30.78 in1042.3 mb 0.00 in0.0 mm 0.00 in0.0 mm 0.00 in0.0 mm
04:05 AM -5.5°F-20.8°C -8.1°F-22.3°C 88% Calm Calm -- 30.78 in1042.3 mb 0.00 in0.0 mm 0.00 in0.0 mm 0.00 in0.0 mm
04:10 AM -5.6°F-20.9°C -8.4°F-22.4°C 87% Calm Calm -- 30.78 in1042.3 mb 0.00 in0.0 mm 0.00 in0.0 mm 0.00 in0.0 mm
04:15 AM -6.0°F-21.1°C -8.8°F-22.7°C 87% Calm Calm -- 30.78 in1042.3 mb 0.00 in0.0 mm 0.00 in0.0 mm 0.00 in0.0 mm
04:20 AM -6.0°F-21.1°C -8.8°F-22.7°C 87% Calm Calm -- 30.78 in1042.3 mb 0.00 in0.0 mm 0.00 in0.0 mm 0.00 in0.0 mm
04:25 AM -3.7°F-19.8°C -7.5°F-21.9°C 83% Calm Calm -- 30.77 in1042.0 mb 0.00 in0.0 mm 0.00 in0.0 mm 0.00 in0.0 mm
04:30 AM -3.8°F-19.9°C -7.6°F-22.0°C 83% Calm Calm -- 30.77 in1042.0 mb 0.00 in0.0 mm 0.00 in0.0 mm 0.00 in0.0 mm
04:35 AM -3.9°F-19.9°C -7.7°F-22.1°C 83% Calm Calm -- 30.78 in1042.3 mb 0.00 in0.0 mm 0.00 in0.0 mm 0.00 in0.0 mm
04:40 AM -3.9°F-19.9°C -7.7°F-22.1°C 83% Calm Calm -- 30.77 in1042.0 mb 0.00 in0.0 mm 0.00 in0.0 mm 0.00 in0.0 mm
04:45 AM -4.0°F-20.0°C -7.8°F-22.1°C 83% Calm Calm -- 30.77 in1042.0 mb 0.00 in0.0 mm 0.00 in0.0 mm 0.00 in0.0 mm
04:50 AM -4.1°F-20.1°C -7.9°F-22.2°C 83% Calm Calm -- 30.77 in1042.0 mb 0.00 in0.0 mm 0.00 in0.0 mm 0.00 in0.0 mm
04:55 AM -4.2°F-20.1°C -8.0°F-22.2°C 83% Calm Calm -- 30.77 in1042.0 mb 0.00 in0.0 mm 0.00 in0.0 mm 0.00 in0.0 mm
05:00 AM -4.1°F-20.1°C -7.9°F-22.2°C 83% Calm Calm -- 30.77 in1042.0 mb 0.00 in0.0 mm 0.00 in0.0 mm 0.00 in0.0 mm
05:05 AM -4.2°F-20.1°C -8.0°F-22.2°C 83% Calm Calm -- 30.77 in1042.0 mb 0.00 in0.0 mm 0.00 in0.0 mm 0.00 in0.0 mm
05:10 AM -4.2°F-20.1°C -8.0°F-22.2°C 83% Calm Calm -- 30.77 in1042.0 mb 0.00 in0.0 mm 0.00 in0.0 mm 0.00 in0.0 mm
05:15 AM -4.2°F-20.1°C -8.0°F-22.2°C 83% Calm Calm -- 30.77 in1042.0 mb 0.00 in0.0 mm 0.00 in0.0 mm 0.00 in0.0 mm
05:20 AM -4.2°F-20.1°C -8.0°F-22.2°C 83% Calm Calm -- 30.76 in1041.7 mb 0.00 in0.0 mm 0.00 in0.0 mm 0.00 in0.0 mm
05:25 AM -4.2°F-20.1°C -8.0°F-22.2°C 83% Calm Calm -- 30.76 in1041.7 mb 0.00 in0.0 mm 0.00 in0.0 mm 0.00 in0.0 mm
05:30 AM -4.3°F-20.2°C -8.1°F-22.3°C 83% Calm Calm -- 30.76 in1041.7 mb 0.00 in0.0 mm 0.00 in0.0 mm 0.00 in0.0 mm
05:35 AM -4.3°F-20.2°C -8.1°F-22.3°C 83% Calm Calm -- 30.77 in1042.0 mb 0.00 in0.0 mm 0.00 in0.0 mm 0.00 in0.0 mm
05:40 AM -4.4°F-20.2°C -8.2°F-22.3°C 83% Calm Calm -- 30.77 in1042.0 mb 0.00 in0.0 mm 0.00 in0.0 mm 0.00 in0.0 mm
05:45 AM -4.4°F-20.2°C -8.2°F-22.3°C 83% Calm Calm -- 30.77 in1042.0 mb 0.00 in0.0 mm 0.00 in0.0 mm 0.00 in0.0 mm
05:50 AM -4.5°F-20.3°C -8.3°F-22.4°C 83% Calm Calm -- 30.77 in1042.0 mb 0.00 in0.0 mm 0.00 in0.0 mm 0.00 in0.0 mm
05:55 AM -4.6°F-20.3°C -8.4°F-22.4°C 83% Calm Calm -- 30.77 in1042.0 mb 0.00 in0.0 mm 0.00 in0.0 mm 0.00 in0.0 mm
06:00 AM -4.7°F-20.4°C -8.5°F-22.5°C 83% Calm Calm -- 30.76 in1041.7 mb 0.00 in0.0 mm 0.00 in0.0 mm 0.00 in0.0 mm
06:05 AM -4.7°F-20.4°C -8.5°F-22.5°C 83% Calm Calm -- 30.76 in1041.7 mb 0.00 in0.0 mm 0.00 in0.0 mm 0.00 in0.0 mm
06:10 AM -4.9°F-20.5°C -8.7°F-22.6°C 83% Calm Calm -- 30.76 in1041.7 mb 0.00 in0.0 mm 0.00 in0.0 mm 0.00 in0.0 mm
06:15 AM -4.9°F-20.5°C -8.7°F-22.6°C 83% Calm Calm -- 30.76 in1041.7 mb 0.00 in0.0 mm 0.00 in0.0 mm 0.00 in0.0 mm
06:20 AM -5.0°F-20.6°C -8.8°F-22.7°C 83% Calm Calm -- 30.76 in1041.7 mb 0.00 in0.0 mm 0.00 in0.0 mm 0.00 in0.0 mm
06:25 AM -5.0°F-20.6°C -8.8°F-22.7°C 83% Calm Calm -- 30.76 in1041.7 mb 0.00 in0.0 mm 0.00 in0.0 mm 0.00 in0.0 mm
06:30 AM -5.0°F-20.6°C -8.8°F-22.7°C 83% Calm Calm -- 30.76 in1041.7 mb 0.00 in0.0 mm 0.00 in0.0 mm 0.00 in0.0 mm
06:35 AM -5.0°F-20.6°C -8.8°F-22.7°C 83% Calm Calm -- 30.76 in1041.7 mb 0.00 in0.0 mm 0.00 in0.0 mm 0.00 in0.0 mm
06:40 AM -4.9°F-20.5°C -8.7°F-22.6°C 83% Calm Calm -- 30.76 in1041.7 mb 0.00 in0.0 mm 0.00 in0.0 mm 0.00 in0.0 mm
06:45 AM -4.8°F-20.4°C -8.6°F-22.6°C 83% Calm Calm -- 30.76 in1041.7 mb 0.00 in0.0 mm 0.00 in0.0 mm 0.00 in0.0 mm
06:50 AM -4.8°F-20.4°C -8.6°F-22.6°C 83% Calm Calm -- 30.75 in1041.3 mb 0.00 in0.0 mm 0.00 in0.0 mm 0.00 in0.0 mm
06:55 AM -4.8°F-20.4°C -8.6°F-22.6°C 83% Calm Calm -- 30.75 in1041.3 mb 0.00 in0.0 mm 0.00 in0.0 mm 0.00 in0.0 mm
07:00 AM -4.7°F-20.4°C -8.5°F-22.5°C 83% Calm Calm -- 30.75 in1041.3 mb 0.00 in0.0 mm 0.00 in0.0 mm 0.00 in0.0 mm
07:05 AM -4.6°F-20.3°C -8.4°F-22.4°C 83% Calm Calm -- 30.75 in1041.3 mb 0.00 in0.0 mm 0.00 in0.0 mm 0.00 in0.0 mm
07:10 AM -4.5°F-20.3°C -8.3°F-22.4°C 83% Calm Calm -- 30.74 in1041.0 mb 0.00 in0.0 mm 0.00 in0.0 mm 0.00 in0.0 mm
07:15 AM -4.5°F-20.3°C -8.3°F-22.4°C 83% Calm Calm -- 30.74 in1041.0 mb 0.00 in0.0 mm 0.00 in0.0 mm 0.00 in0.0 mm
07:20 AM -4.4°F-20.2°C -8.2°F-22.3°C 83% Calm Calm -- 30.74 in1041.0 mb 0.00 in0.0 mm 0.00 in0.0 mm 0.00 in0.0 mm
07:25 AM -4.3°F-20.2°C -8.1°F-22.3°C 83% Calm Calm -- 30.74 in1041.0 mb 0.00 in0.0 mm 0.00 in0.0 mm 0.00 in0.0 mm
07:30 AM -4.3°F-20.2°C -8.1°F-22.3°C 83% Calm Calm -- 30.73 in1040.6 mb 0.00 in0.0 mm 0.00 in0.0 mm 0.00 in0.0 mm
07:35 AM -4.3°F-20.2°C -8.1°F-22.3°C 83% Calm Calm -- 30.73 in1040.6 mb 0.00 in0.0 mm 0.00 in0.0 mm 0.00 in0.0 mm
07:40 AM -4.4°F-20.2°C -8.2°F-22.3°C 83% Calm Calm 3.0 mph4.8 kmh 30.73 in1040.6 mb 0.00 in0.0 mm 0.00 in0.0 mm 0.00 in0.0 mm
07:45 AM -4.4°F-20.2°C -8.5°F-22.5°C 82% Calm Calm 3.0 mph4.8 kmh 30.73 in1040.6 mb 0.00 in0.0 mm 0.00 in0.0 mm 0.00 in0.0 mm
07:50 AM -3.1°F-19.5°C -8.0°F-22.2°C 79% 2.0 mph SSE3.2 kmh SSE -- 30.73 in1040.6 mb 0.00 in0.0 mm 0.00 in0.0 mm 0.00 in0.0 mm
07:55 AM -3.0°F-19.4°C -7.9°F-22.2°C 79% 1.0 mph SSE1.6 kmh SSE -- 30.73 in1040.6 mb 0.00 in0.0 mm 0.00 in0.0 mm 0.00 in0.0 mm
08:00 AM -2.9°F-19.4°C -7.8°F-22.1°C 79% 1.0 mph SE1.6 kmh SE -- 30.73 in1040.6 mb 0.00 in0.0 mm 0.00 in0.0 mm 0.00 in0.0 mm
08:05 AM -2.9°F-19.4°C -8.0°F-22.2°C 78% Calm Calm -- 30.73 in1040.6 mb 0.00 in0.0 mm 0.00 in0.0 mm 0.00 in0.0 mm
08:10 AM -3.3°F-19.6°C -7.1°F-21.7°C 83% 1.0 mph WNW1.6 kmh WNW -- 30.73 in1040.6 mb 0.00 in0.0 mm 0.00 in0.0 mm 0.00 in0.0 mm
08:15 AM -2.7°F-19.3°C -6.6°F-21.4°C 83% Calm Calm -- 30.73 in1040.6 mb 0.00 in0.0 mm 0.00 in0.0 mm 0.00 in0.0 mm
08:20 AM -2.4°F-19.1°C -6.5°F-21.4°C 82% 2.0 mph WNW3.2 kmh WNW -- 30.73 in1040.6 mb 0.00 in0.0 mm 0.00 in0.0 mm 0.00 in0.0 mm
08:25 AM -2.1°F-18.9°C -6.2°F-21.2°C 82% 1.0 mph WNW1.6 kmh WNW -- 30.73 in1040.6 mb 0.00 in0.0 mm 0.00 in0.0 mm 0.00 in0.0 mm
08:30 AM -1.8°F-18.8°C -5.9°F-21.1°C 82% 1.0 mph WNW1.6 kmh WNW 3.0 mph4.8 kmh 30.73 in1040.6 mb 0.00 in0.0 mm 0.00 in0.0 mm 0.00 in0.0 mm
08:35 AM -1.6°F-18.7°C -6.0°F-21.1°C 81% 2.0 mph SSE3.2 kmh SSE 3.0 mph4.8 kmh 30.73 in1040.6 mb 0.00 in0.0 mm 0.00 in0.0 mm 0.00 in0.0 mm
08:40 AM -1.5°F-18.6°C -6.1°F-21.2°C 80% 3.0 mph SSE4.8 kmh SSE -- 30.73 in1040.6 mb 0.00 in0.0 mm 0.00 in0.0 mm 0.00 in0.0 mm
08:45 AM -1.4°F-18.6°C -6.0°F-21.1°C 80% 1.0 mph SSE1.6 kmh SSE -- 30.72 in1040.3 mb 0.00 in0.0 mm 0.00 in0.0 mm 0.00 in0.0 mm
08:50 AM -1.3°F-18.5°C -6.2°F-21.2°C 79% 4.0 mph SSE6.4 kmh SSE -- 30.72 in1040.3 mb 0.00 in0.0 mm 0.00 in0.0 mm 0.00 in0.0 mm
08:55 AM -1.1°F-18.4°C -6.0°F-21.1°C 79% 4.0 mph SSE6.4 kmh SSE -- 30.72 in1040.3 mb 0.00 in0.0 mm 0.00 in0.0 mm 0.00 in0.0 mm
09:00 AM -0.9°F-18.3°C -5.8°F-21.0°C 79% 1.0 mph SE1.6 kmh SE -- 30.72 in1040.3 mb 0.00 in0.0 mm 0.00 in0.0 mm 0.00 in0.0 mm
09:05 AM -0.8°F-18.2°C -6.0°F-21.1°C 78% 4.0 mph SE6.4 kmh SE -- 30.72 in1040.3 mb 0.00 in0.0 mm 0.00 in0.0 mm 0.00 in0.0 mm
09:10 AM -0.5°F-18.1°C -5.4°F-20.8°C 79% 6.0 mph SE9.7 kmh SE -- 30.72 in1040.3 mb 0.00 in0.0 mm 0.00 in0.0 mm 0.00 in0.0 mm
09:15 AM -0.1°F-17.8°C -5.0°F-20.6°C 79% 3.0 mph SE4.8 kmh SE -- 30.72 in1040.3 mb 0.00 in0.0 mm 0.00 in0.0 mm 0.00 in0.0 mm
09:20 AM 0.6°F-17.4°C -4.4°F-20.2°C 79% 4.0 mph SSE6.4 kmh SSE 6.0 mph9.7 kmh 30.72 in1040.3 mb 0.00 in0.0 mm 0.00 in0.0 mm 0.00 in0.0 mm
09:25 AM 1.2°F-17.1°C -4.0°F-20.0°C 78% 3.0 mph SSE4.8 kmh SSE 6.0 mph9.7 kmh 30.71 in1040.0 mb 0.00 in0.0 mm 0.00 in0.0 mm 0.00 in0.0 mm
09:30 AM 1.8°F-16.8°C -3.4°F-19.7°C 78% 6.0 mph SSE9.7 kmh SSE -- 30.71 in1040.0 mb 0.00 in0.0 mm 0.00 in0.0 mm 0.00 in0.0 mm
09:35 AM 2.0°F-16.7°C -3.5°F-19.7°C 77% 4.0 mph SSE6.4 kmh SSE -- 30.71 in1040.0 mb 0.00 in0.0 mm 0.00 in0.0 mm 0.00 in0.0 mm
09:40 AM 1.6°F-16.9°C -3.6°F-19.8°C 78% 1.0 mph SSW1.6 kmh SSW -- 30.71 in1040.0 mb 0.00 in0.0 mm 0.00 in0.0 mm 0.00 in0.0 mm
09:45 AM 2.0°F-16.7°C -3.3°F-19.6°C 78% 3.0 mph S4.8 kmh S -- 30.71 in1040.0 mb 0.00 in0.0 mm 0.00 in0.0 mm 0.00 in0.0 mm
09:50 AM 2.4°F-16.4°C -3.1°F-19.5°C 77% 3.0 mph S4.8 kmh S -- 30.71 in1040.0 mb 0.00 in0.0 mm 0.00 in0.0 mm 0.00 in0.0 mm
09:55 AM 2.9°F-16.2°C -2.4°F-19.1°C 78% 3.0 mph SW4.8 kmh SW -- 30.71 in1040.0 mb 0.00 in0.0 mm 0.00 in0.0 mm 0.00 in0.0 mm
10:00 AM 3.3°F-15.9°C -2.3°F-19.1°C 77% 5.0 mph SW8.0 kmh SW -- 30.71 in1040.0 mb 0.00 in0.0 mm 0.00 in0.0 mm 0.00 in0.0 mm
10:05 AM 3.7°F-15.7°C -2.1°F-18.9°C 76% 4.0 mph S6.4 kmh S -- 30.71 in1040.0 mb 0.00 in0.0 mm 0.00 in0.0 mm 0.00 in0.0 mm
10:10 AM 4.0°F-15.6°C -1.9°F-18.8°C 76% 4.0 mph SW6.4 kmh SW 8.0 mph12.9 kmh 30.71 in1040.0 mb 0.00 in0.0 mm 0.00 in0.0 mm 0.00 in0.0 mm
10:15 AM 4.6°F-15.2°C -1.0°F-18.3°C 77% 6.0 mph S9.7 kmh S 8.0 mph12.9 kmh 30.71 in1040.0 mb 0.00 in0.0 mm 0.00 in0.0 mm 0.00 in0.0 mm
10:20 AM 5.8°F-14.6°C -0.4°F-18.0°C 75% 2.0 mph SSE3.2 kmh SSE -- 30.70 in1039.6 mb 0.00 in0.0 mm 0.00 in0.0 mm 0.00 in0.0 mm
10:25 AM 6.4°F-14.2°C 0.2°F-17.7°C 75% 4.0 mph S6.4 kmh S -- 30.70 in1039.6 mb 0.00 in0.0 mm 0.00 in0.0 mm 0.00 in0.0 mm
10:30 AM 7.0°F-13.9°C 0.5°F-17.5°C 74% 4.0 mph S6.4 kmh S -- 30.71 in1040.0 mb 0.00 in0.0 mm 0.00 in0.0 mm 0.00 in0.0 mm
10:35 AM 7.6°F-13.6°C 1.1°F-17.2°C 74% 2.0 mph S3.2 kmh S -- 30.71 in1040.0 mb 0.00 in0.0 mm 0.00 in0.0 mm 0.00 in0.0 mm
10:40 AM 7.8°F-13.4°C 0.4°F-17.6°C 71% 3.0 mph SSE4.8 kmh SSE -- 30.70 in1039.6 mb 0.00 in0.0 mm 0.00 in0.0 mm 0.00 in0.0 mm
10:45 AM 8.1°F-13.3°C 0.7°F-17.4°C 71% 4.0 mph S6.4 kmh S -- 30.70 in1039.6 mb 0.00 in0.0 mm 0.00 in0.0 mm 0.00 in0.0 mm
10:50 AM 8.0°F-13.3°C 0.3°F-17.6°C 70% 4.0 mph S6.4 kmh S -- 30.70 in1039.6 mb 0.00 in0.0 mm 0.00 in0.0 mm 0.00 in0.0 mm
10:55 AM 8.1°F-13.3°C 0.4°F-17.6°C 70% 9.0 mph S14.5 kmh S -- 30.70 in1039.6 mb 0.00 in0.0 mm 0.00 in0.0 mm 0.00 in0.0 mm
11:00 AM 8.6°F-13.0°C 0.9°F-17.3°C 70% 5.0 mph S8.0 kmh S 9.0 mph14.5 kmh 30.70 in1039.6 mb 0.00 in0.0 mm 0.00 in0.0 mm 0.00 in0.0 mm
11:05 AM 8.7°F-12.9°C 0.6°F-17.4°C 69% 5.0 mph S8.0 kmh S 9.0 mph14.5 kmh 30.70 in1039.6 mb 0.00 in0.0 mm 0.00 in0.0 mm 0.00 in0.0 mm
11:10 AM 8.9°F-12.8°C 0.8°F-17.3°C 69% 2.0 mph S3.2 kmh S -- 30.70 in1039.6 mb 0.00 in0.0 mm 0.00 in0.0 mm 0.00 in0.0 mm
11:15 AM 9.2°F-12.7°C 1.1°F-17.2°C 69% 2.0 mph S3.2 kmh S -- 30.69 in1039.3 mb 0.00 in0.0 mm 0.00 in0.0 mm 0.00 in0.0 mm
11:20 AM 9.4°F-12.6°C 1.0°F-17.2°C 68% 7.0 mph SE11.3 kmh SE -- 30.69 in1039.3 mb 0.00 in0.0 mm 0.00 in0.0 mm 0.00 in0.0 mm
11:25 AM 9.9°F-12.3°C 1.5°F-16.9°C 68% 8.0 mph SSE12.9 kmh SSE -- 30.68 in1038.9 mb 0.00 in0.0 mm 0.00 in0.0 mm 0.00 in0.0 mm
11:30 AM 10.2°F-12.1°C 1.8°F-16.8°C 68% 3.0 mph S4.8 kmh S -- 30.68 in1038.9 mb 0.00 in0.0 mm 0.00 in0.0 mm 0.00 in0.0 mm
11:35 AM 10.6°F-11.9°C 2.2°F-16.6°C 68% 7.0 mph S11.3 kmh S -- 30.68 in1038.9 mb 0.00 in0.0 mm 0.00 in0.0 mm 0.00 in0.0 mm
11:40 AM 10.8°F-11.8°C 2.3°F-16.5°C 68% 4.0 mph SSE6.4 kmh SSE -- 30.68 in1038.9 mb 0.00 in0.0 mm 0.00 in0.0 mm 0.00 in0.0 mm
11:45 AM 11.0°F-11.7°C 2.5°F-16.4°C 68% 5.0 mph S8.0 kmh S -- 30.67 in1038.6 mb 0.00 in0.0 mm 0.00 in0.0 mm 0.00 in0.0 mm
11:50 AM 11.1°F-11.6°C 2.3°F-16.5°C 67% 7.0 mph S11.3 kmh S 10.0 mph16.1 kmh 30.67 in1038.6 mb 0.00 in0.0 mm 0.00 in0.0 mm 0.00 in0.0 mm
11:55 AM 11.3°F-11.5°C 2.5°F-16.4°C 67% 7.0 mph S11.3 kmh S 10.0 mph16.1 kmh 30.67 in1038.6 mb 0.00 in0.0 mm 0.00 in0.0 mm 0.00 in0.0 mm
12:00 PM 11.7°F-11.3°C 1.9°F-16.7°C 64% 6.0 mph SE9.7 kmh SE -- 30.66 in1038.3 mb 0.00 in0.0 mm 0.00 in0.0 mm 0.00 in0.0 mm
12:05 PM 12.2°F-11.0°C 3.0°F-16.1°C 66% 4.0 mph S6.4 kmh S -- 30.66 in1038.3 mb 0.00 in0.0 mm 0.00 in0.0 mm 0.00 in0.0 mm
12:10 PM 12.3°F-10.9°C 2.5°F-16.4°C 64% 4.0 mph S6.4 kmh S -- 30.65 in1037.9 mb 0.00 in0.0 mm 0.00 in0.0 mm 0.00 in0.0 mm
12:15 PM 12.7°F-10.7°C 2.5°F-16.4°C 63% 5.0 mph SE8.0 kmh SE -- 30.65 in1037.9 mb 0.00 in0.0 mm 0.00 in0.0 mm 0.00 in0.0 mm
12:20 PM 13.3°F-10.4°C 2.7°F-16.3°C 62% 13.0 mph SSE20.9 kmh SSE -- 30.64 in1037.6 mb 0.00 in0.0 mm 0.00 in0.0 mm 0.00 in0.0 mm
12:25 PM 13.2°F-10.4°C 1.9°F-16.7°C 60% 7.0 mph SSE11.3 kmh SSE -- 30.64 in1037.6 mb 0.00 in0.0 mm 0.00 in0.0 mm 0.00 in0.0 mm
12:30 PM 13.5°F-10.3°C 1.9°F-16.7°C 59% 6.0 mph SE9.7 kmh SE -- 30.64 in1037.6 mb 0.00 in0.0 mm 0.00 in0.0 mm 0.00 in0.0 mm
12:35 PM 13.9°F-10.1°C 2.6°F-16.3°C 60% 5.0 mph SSW8.0 kmh SSW -- 30.63 in1037.3 mb 0.00 in0.0 mm 0.00 in0.0 mm 0.00 in0.0 mm
12:40 PM 12.8°F-10.7°C 1.9°F-16.7°C 61% 11.0 mph SW17.7 kmh SW 11.0 mph17.7 kmh 30.63 in1037.3 mb 0.00 in0.0 mm 0.00 in0.0 mm 0.00 in0.0 mm
12:45 PM 12.5°F-10.8°C 0.2°F-17.7°C 57% 14.0 mph SW22.5 kmh SW 11.0 mph17.7 kmh 30.63 in1037.3 mb 0.00 in0.0 mm 0.00 in0.0 mm 0.00 in0.0 mm
12:50 PM 12.2°F-11.0°C 0.6°F-17.4°C 59% 5.0 mph SSW8.0 kmh SSW -- 30.62 in1036.9 mb 0.00 in0.0 mm 0.00 in0.0 mm 0.00 in0.0 mm
12:55 PM 12.3°F-10.9°C 1.1°F-17.2°C 60% 6.0 mph SW9.7 kmh SW -- 30.62 in1036.9 mb 0.00 in0.0 mm 0.00 in0.0 mm 0.00 in0.0 mm
01:00 PM 12.1°F-11.1°C 0.2°F-17.7°C 58% 11.0 mph SW17.7 kmh SW -- 30.61 in1036.6 mb 0.00 in0.0 mm 0.00 in0.0 mm 0.00 in0.0 mm
01:05 PM 12.0°F-11.1°C 0.5°F-17.5°C 59% 10.0 mph SW16.1 kmh SW -- 30.61 in1036.6 mb 0.00 in0.0 mm 0.00 in0.0 mm 0.00 in0.0 mm
01:10 PM 12.1°F-11.1°C 0.6°F-17.4°C 59% 8.0 mph SW12.9 kmh SW -- 30.61 in1036.6 mb 0.00 in0.0 mm 0.00 in0.0 mm 0.00 in0.0 mm
01:15 PM 13.0°F-10.6°C 1.4°F-17.0°C 59% 9.0 mph SSW14.5 kmh SSW -- 30.60 in1036.2 mb 0.00 in0.0 mm 0.00 in0.0 mm 0.00 in0.0 mm
01:20 PM 12.9°F-10.6°C 1.3°F-17.1°C 59% 3.0 mph S4.8 kmh S -- 30.59 in1035.9 mb 0.00 in0.0 mm 0.00 in0.0 mm 0.00 in0.0 mm
01:25 PM 13.1°F-10.5°C 1.9°F-16.7°C 60% 10.0 mph S16.1 kmh S -- 30.59 in1035.9 mb 0.00 in0.0 mm 0.00 in0.0 mm 0.00 in0.0 mm
01:30 PM 13.1°F-10.5°C 1.9°F-16.7°C 60% 6.0 mph SSE9.7 kmh SSE 12.0 mph19.3 kmh 30.58 in1035.6 mb 0.00 in0.0 mm 0.00 in0.0 mm 0.00 in0.0 mm
01:35 PM 13.2°F-10.4°C 2.3°F-16.5°C 61% 6.0 mph S9.7 kmh S 12.0 mph19.3 kmh 30.58 in1035.6 mb 0.00 in0.0 mm 0.00 in0.0 mm 0.00 in0.0 mm
01:40 PM 13.4°F-10.3°C 2.5°F-16.4°C 61% 5.0 mph S8.0 kmh S -- 30.57 in1035.2 mb 0.00 in0.0 mm 0.00 in0.0 mm 0.00 in0.0 mm
01:45 PM 13.6°F-10.2°C 2.3°F-16.5°C 60% 13.0 mph S20.9 kmh S -- 30.57 in1035.2 mb 0.00 in0.0 mm 0.00 in0.0 mm 0.00 in0.0 mm
01:50 PM 13.6°F-10.2°C 2.3°F-16.5°C 60% 8.0 mph SSW12.9 kmh SSW -- 30.56 in1034.9 mb 0.00 in0.0 mm 0.00 in0.0 mm 0.00 in0.0 mm
01:55 PM 13.8°F-10.1°C 2.9°F-16.2°C 61% 7.0 mph S11.3 kmh S -- 30.56 in1034.9 mb 0.00 in0.0 mm 0.00 in0.0 mm 0.00 in0.0 mm
02:00 PM 14.0°F-10.0°C 3.1°F-16.1°C 61% 7.0 mph SSE11.3 kmh SSE -- 30.55 in1034.5 mb 0.00 in0.0 mm 0.00 in0.0 mm 0.00 in0.0 mm
02:05 PM 14.1°F-9.9°C 2.1°F-16.6°C 58% 9.0 mph SSW14.5 kmh SSW -- 30.55 in1034.5 mb 0.00 in0.0 mm 0.00 in0.0 mm 0.00 in0.0 mm
02:10 PM 14.0°F-10.0°C 2.0°F-16.7°C 58% 4.0 mph S6.4 kmh S -- 30.55 in1034.5 mb 0.00 in0.0 mm 0.00 in0.0 mm 0.00 in0.0 mm
02:15 PM 14.0°F-10.0°C 1.6°F-16.9°C 57% 3.0 mph S4.8 kmh S -- 30.54 in1034.2 mb 0.00 in0.0 mm 0.00 in0.0 mm 0.00 in0.0 mm
02:20 PM 13.9°F-10.1°C 1.5°F-16.9°C 57% 7.0 mph S11.3 kmh S 16.0 mph25.7 kmh 30.54 in1034.2 mb 0.00 in0.0 mm 0.00 in0.0 mm 0.00 in0.0 mm
02:25 PM 13.9°F-10.1°C 1.9°F-16.7°C 58% 10.0 mph SE16.1 kmh SE 16.0 mph25.7 kmh 30.53 in1033.9 mb 0.00 in0.0 mm 0.00 in0.0 mm 0.00 in0.0 mm
02:30 PM 13.8°F-10.1°C 1.4°F-17.0°C 57% 11.0 mph S17.7 kmh S -- 30.53 in1033.9 mb 0.00 in0.0 mm 0.00 in0.0 mm 0.00 in0.0 mm
02:35 PM 13.8°F-10.1°C 1.8°F-16.8°C 58% 11.0 mph SSE17.7 kmh SSE -- 30.53 in1033.9 mb 0.00 in0.0 mm 0.00 in0.0 mm 0.00 in0.0 mm
02:40 PM 13.8°F-10.1°C 1.8°F-16.8°C 58% 7.0 mph SE11.3 kmh SE -- 30.52 in1033.5 mb 0.00 in0.0 mm 0.00 in0.0 mm 0.00 in0.0 mm
02:45 PM 13.9°F-10.1°C 1.9°F-16.7°C 58% 8.0 mph S12.9 kmh S -- 30.52 in1033.5 mb 0.00 in0.0 mm 0.00 in0.0 mm 0.00 in0.0 mm
02:50 PM 13.8°F-10.1°C 2.2°F-16.6°C 59% 6.0 mph SSE9.7 kmh SSE -- 30.52 in1033.5 mb 0.00 in0.0 mm 0.00 in0.0 mm 0.00 in0.0 mm
02:55 PM 13.9°F-10.1°C 2.6°F-16.3°C 60% 4.0 mph S6.4 kmh S -- 30.51 in1033.2 mb 0.00 in0.0 mm 0.00 in0.0 mm 0.00 in0.0 mm
03:00 PM 14.0°F-10.0°C 3.1°F-16.1°C 61% 8.0 mph SE12.9 kmh SE -- 30.51 in1033.2 mb 0.00 in0.0 mm 0.00 in0.0 mm 0.00 in0.0 mm
03:05 PM 14.1°F-9.9°C 2.8°F-16.2°C 60% 6.0 mph SSE9.7 kmh SSE -- 30.51 in1033.2 mb 0.00 in0.0 mm 0.00 in0.0 mm 0.00 in0.0 mm
03:10 PM 14.1°F-9.9°C 3.2°F-16.0°C 61% 3.0 mph S4.8 kmh S 14.0 mph22.5 kmh 30.51 in1033.2 mb 0.00 in0.0 mm 0.00 in0.0 mm 0.00 in0.0 mm
03:15 PM 14.2°F-9.9°C 3.3°F-15.9°C 61% 5.0 mph S8.0 kmh S 14.0 mph22.5 kmh 30.50 in1032.8 mb 0.00 in0.0 mm 0.00 in0.0 mm 0.00 in0.0 mm
03:20 PM 14.4°F-9.8°C 3.8°F-15.7°C 62% 6.0 mph SSE9.7 kmh SSE -- 30.50 in1032.8 mb 0.00 in0.0 mm 0.00 in0.0 mm 0.00 in0.0 mm
03:25 PM 14.4°F-9.8°C 3.8°F-15.7°C 62% 6.0 mph SSE9.7 kmh SSE -- 30.50 in1032.8 mb 0.00 in0.0 mm 0.00 in0.0 mm 0.00 in0.0 mm
03:30 PM 14.4°F-9.8°C 3.8°F-15.7°C 62% 3.0 mph SSE4.8 kmh SSE -- 30.49 in1032.5 mb 0.00 in0.0 mm 0.00 in0.0 mm 0.00 in0.0 mm
03:35 PM 14.4°F-9.8°C 3.8°F-15.7°C 62% 6.0 mph SSE9.7 kmh SSE -- 30.49 in1032.5 mb 0.00 in0.0 mm 0.00 in0.0 mm 0.00 in0.0 mm
03:40 PM 14.4°F-9.8°C 3.8°F-15.7°C 62% 7.0 mph SSE11.3 kmh SSE -- 30.49 in1032.5 mb 0.00 in0.0 mm 0.00 in0.0 mm 0.00 in0.0 mm
03:45 PM 14.4°F-9.8°C 3.4°F-15.9°C 61% 6.0 mph SE9.7 kmh SE -- 30.49 in1032.5 mb 0.00 in0.0 mm 0.00 in0.0 mm 0.00 in0.0 mm
03:50 PM 13.7°F-10.2°C 2.8°F-16.2°C 61% 6.0 mph SSW9.7 kmh SSW -- 30.49 in1032.5 mb 0.00 in0.0 mm 0.00 in0.0 mm 0.00 in0.0 mm
03:55 PM 13.8°F-10.1°C 3.2°F-16.0°C 62% 9.0 mph SW14.5 kmh SW -- 30.49 in1032.5 mb 0.00 in0.0 mm 0.00 in0.0 mm 0.00 in0.0 mm
04:00 PM 13.8°F-10.1°C 3.2°F-16.0°C 62% 7.0 mph SSW11.3 kmh SSW 14.0 mph22.5 kmh 30.48 in1032.2 mb 0.00 in0.0 mm 0.00 in0.0 mm 0.00 in0.0 mm
04:05 PM 13.8°F-10.1°C 3.2°F-16.0°C 62% 5.0 mph SSW8.0 kmh SSW 14.0 mph22.5 kmh 30.48 in1032.2 mb 0.00 in0.0 mm 0.00 in0.0 mm 0.00 in0.0 mm
04:10 PM 13.9°F-10.1°C 3.3°F-15.9°C 62% 6.0 mph S9.7 kmh S -- 30.48 in1032.2 mb 0.00 in0.0 mm 0.00 in0.0 mm 0.00 in0.0 mm
04:15 PM 13.9°F-10.1°C 3.3°F-15.9°C 62% 5.0 mph SSW8.0 kmh SSW -- 30.48 in1032.2 mb 0.00 in0.0 mm 0.00 in0.0 mm 0.00 in0.0 mm
04:20 PM 13.9°F-10.1°C 3.7°F-15.7°C 63% 10.0 mph SSE16.1 kmh SSE -- 30.48 in1032.2 mb 0.00 in0.0 mm 0.00 in0.0 mm 0.00 in0.0 mm
04:25 PM 13.9°F-10.1°C 3.7°F-15.7°C 63% 7.0 mph SSW11.3 kmh SSW -- 30.47 in1031.8 mb 0.00 in0.0 mm 0.00 in0.0 mm 0.00 in0.0 mm
04:30 PM 13.9°F-10.1°C 3.7°F-15.7°C 63% 8.0 mph SW12.9 kmh SW -- 30.47 in1031.8 mb 0.00 in0.0 mm 0.00 in0.0 mm 0.00 in0.0 mm
04:35 PM 13.9°F-10.1°C 3.3°F-15.9°C 62% 8.0 mph SW12.9 kmh SW -- 30.47 in1031.8 mb 0.00 in0.0 mm 0.00 in0.0 mm 0.00 in0.0 mm
04:40 PM 14.0°F-10.0°C 3.8°F-15.7°C 63% 6.0 mph S9.7 kmh S -- 30.47 in1031.8 mb 0.00 in0.0 mm 0.00 in0.0 mm 0.00 in0.0 mm
04:45 PM 14.1°F-9.9°C 3.9°F-15.6°C 63% 10.0 mph SSW16.1 kmh SSW -- 30.46 in1031.5 mb 0.00 in0.0 mm 0.00 in0.0 mm 0.00 in0.0 mm
04:50 PM 14.1°F-9.9°C 3.9°F-15.6°C 63% 9.0 mph SW14.5 kmh SW 15.0 mph24.1 kmh 30.46 in1031.5 mb 0.00 in0.0 mm 0.00 in0.0 mm 0.00 in0.0 mm
04:55 PM 15.1°F-9.4°C 4.8°F-15.1°C 63% 11.0 mph SE17.7 kmh SE 15.0 mph24.1 kmh 30.46 in1031.5 mb 0.00 in0.0 mm 0.00 in0.0 mm 0.00 in0.0 mm
05:00 PM 15.0°F-9.4°C 5.1°F-14.9°C 64% 10.0 mph SSW16.1 kmh SSW -- 30.46 in1031.5 mb 0.00 in0.0 mm 0.00 in0.0 mm 0.00 in0.0 mm
05:05 PM 15.1°F-9.4°C 5.5°F-14.7°C 65% 7.0 mph SE11.3 kmh SE -- 30.45 in1031.2 mb 0.00 in0.0 mm 0.00 in0.0 mm 0.00 in0.0 mm
05:10 PM 15.2°F-9.3°C 5.6°F-14.7°C 65% 9.0 mph S14.5 kmh S -- 30.45 in1031.2 mb 0.00 in0.0 mm 0.00 in0.0 mm 0.00 in0.0 mm
05:15 PM 15.2°F-9.3°C 5.6°F-14.7°C 65% 6.0 mph SSE9.7 kmh SSE -- 30.45 in1031.2 mb 0.00 in0.0 mm 0.00 in0.0 mm 0.00 in0.0 mm
05:20 PM 15.1°F-9.4°C 5.5°F-14.7°C 65% 11.0 mph SE17.7 kmh SE -- 30.45 in1031.2 mb 0.00 in0.0 mm 0.00 in0.0 mm 0.00 in0.0 mm
05:25 PM 15.2°F-9.3°C 5.9°F-14.5°C 66% 7.0 mph SSE11.3 kmh SSE -- 30.45 in1031.2 mb 0.00 in0.0 mm 0.00 in0.0 mm 0.00 in0.0 mm
05:30 PM 15.2°F-9.3°C 5.9°F-14.5°C 66% 6.0 mph SE9.7 kmh SE -- 30.45 in1031.2 mb 0.00 in0.0 mm 0.00 in0.0 mm 0.00 in0.0 mm
05:35 PM 15.3°F-9.3°C 6.0°F-14.4°C 66% 6.0 mph S9.7 kmh S -- 30.45 in1031.2 mb 0.00 in0.0 mm 0.00 in0.0 mm 0.00 in0.0 mm
05:40 PM 15.3°F-9.3°C 6.0°F-14.4°C 66% 7.0 mph SSE11.3 kmh SSE 11.0 mph17.7 kmh 30.45 in1031.2 mb 0.00 in0.0 mm 0.00 in0.0 mm 0.00 in0.0 mm
05:45 PM 15.3°F-9.3°C 6.3°F-14.3°C 67% 7.0 mph SE11.3 kmh SE 11.0 mph17.7 kmh 30.44 in1030.8 mb 0.00 in0.0 mm 0.00 in0.0 mm 0.00 in0.0 mm
05:50 PM 15.2°F-9.3°C 6.2°F-14.3°C 67% 5.0 mph SSE8.0 kmh SSE -- 30.44 in1030.8 mb 0.00 in0.0 mm 0.00 in0.0 mm 0.00 in0.0 mm
05:55 PM 15.2°F-9.3°C 6.2°F-14.3°C 67% 5.0 mph SSE8.0 kmh SSE -- 30.44 in1030.8 mb 0.00 in0.0 mm 0.00 in0.0 mm 0.00 in0.0 mm
06:00 PM 14.3°F-9.8°C 6.3°F-14.3°C 70% 6.0 mph SSW9.7 kmh SSW -- 30.44 in1030.8 mb 0.00 in0.0 mm 0.00 in0.0 mm 0.00 in0.0 mm
06:05 PM 14.4°F-9.8°C 6.7°F-14.1°C 71% 7.0 mph SSW11.3 kmh SSW -- 30.44 in1030.8 mb 0.00 in0.0 mm 0.00 in0.0 mm 0.00 in0.0 mm
06:10 PM 14.4°F-9.8°C 6.7°F-14.1°C 71% 11.0 mph SSW17.7 kmh SSW -- 30.44 in1030.8 mb 0.00 in0.0 mm 0.00 in0.0 mm 0.00 in0.0 mm
06:15 PM 14.4°F-9.8°C 7.1°F-13.8°C 72% 11.0 mph SW17.7 kmh SW -- 30.44 in1030.8 mb 0.00 in0.0 mm 0.00 in0.0 mm 0.00 in0.0 mm
06:20 PM 14.4°F-9.8°C 7.4°F-13.7°C 73% 4.0 mph SSW6.4 kmh SSW -- 30.43 in1030.5 mb 0.00 in0.0 mm 0.00 in0.0 mm 0.00 in0.0 mm
06:25 PM 14.4°F-9.8°C 7.7°F-13.5°C 74% 7.0 mph S11.3 kmh S -- 30.44 in1030.8 mb 0.00 in0.0 mm 0.00 in0.0 mm 0.00 in0.0 mm
06:30 PM 14.4°F-9.8°C 7.7°F-13.5°C 74% 11.0 mph SSW17.7 kmh SSW 16.0 mph25.7 kmh 30.43 in1030.5 mb 0.00 in0.0 mm 0.00 in0.0 mm 0.00 in0.0 mm
06:35 PM 14.4°F-9.8°C 7.9°F-13.4°C 75% 13.0 mph S20.9 kmh S 16.0 mph25.7 kmh 30.43 in1030.5 mb 0.00 in0.0 mm 0.00 in0.0 mm 0.00 in0.0 mm
06:40 PM 14.3°F-9.8°C 8.1°F-13.3°C 76% 6.0 mph S9.7 kmh S -- 30.43 in1030.5 mb 0.00 in0.0 mm 0.00 in0.0 mm 0.00 in0.0 mm
06:45 PM 14.4°F-9.8°C 8.5°F-13.1°C 77% 8.0 mph SSW12.9 kmh SSW -- 30.43 in1030.5 mb 0.00 in0.0 mm 0.00 in0.0 mm 0.00 in0.0 mm
06:50 PM 14.4°F-9.8°C 8.8°F-12.9°C 78% 6.0 mph SSW9.7 kmh SSW -- 30.43 in1030.5 mb 0.00 in0.0 mm 0.00 in0.0 mm 0.00 in0.0 mm
06:55 PM 14.3°F-9.8°C 9.0°F-12.8°C 79% 6.0 mph SSW9.7 kmh SSW -- 30.43 in1030.5 mb 0.00 in0.0 mm 0.00 in0.0 mm 0.00 in0.0 mm
07:00 PM 14.3°F-9.8°C 9.0°F-12.8°C 79% 6.0 mph SSW9.7 kmh SSW -- 30.43 in1030.5 mb 0.00 in0.0 mm 0.00 in0.0 mm 0.00 in0.0 mm
07:05 PM 14.3°F-9.8°C 9.3°F-12.6°C 80% 7.0 mph SSW11.3 kmh SSW -- 30.42 in1030.1 mb 0.00 in0.0 mm 0.00 in0.0 mm 0.00 in0.0 mm
07:10 PM 15.2°F-9.3°C 10.2°F-12.1°C 80% 6.0 mph SSE9.7 kmh SSE -- 30.42 in1030.1 mb 0.00 in0.0 mm 0.00 in0.0 mm 0.00 in0.0 mm
07:15 PM 15.2°F-9.3°C 10.4°F-12.0°C 81% 6.0 mph SE9.7 kmh SE -- 30.42 in1030.1 mb 0.00 in0.0 mm 0.00 in0.0 mm 0.00 in0.0 mm
07:20 PM 15.2°F-9.3°C 10.7°F-11.8°C 82% 5.0 mph SE8.0 kmh SE 14.0 mph22.5 kmh 30.42 in1030.1 mb 0.00 in0.0 mm 0.00 in0.0 mm 0.00 in0.0 mm
07:25 PM 15.2°F-9.3°C 10.7°F-11.8°C 82% 7.0 mph SSE11.3 kmh SSE 14.0 mph22.5 kmh 30.42 in1030.1 mb 0.00 in0.0 mm 0.00 in0.0 mm 0.00 in0.0 mm
07:30 PM 15.2°F-9.3°C 11.0°F-11.7°C 83% 7.0 mph SE11.3 kmh SE -- 30.41 in1029.8 mb 0.00 in0.0 mm 0.00 in0.0 mm 0.00 in0.0 mm
07:35 PM 15.3°F-9.3°C 11.1°F-11.6°C 83% 4.0 mph SSE6.4 kmh SSE -- 30.41 in1029.8 mb 0.00 in0.0 mm 0.00 in0.0 mm 0.00 in0.0 mm
07:40 PM 15.3°F-9.3°C 11.1°F-11.6°C 83% 5.0 mph SE8.0 kmh SE -- 30.41 in1029.8 mb 0.00 in0.0 mm 0.00 in0.0 mm 0.00 in0.0 mm
07:45 PM 15.4°F-9.2°C 11.4°F-11.4°C 84% 7.0 mph SE11.3 kmh SE -- 30.41 in1029.8 mb 0.00 in0.0 mm 0.00 in0.0 mm 0.00 in0.0 mm
07:50 PM 15.5°F-9.2°C 11.5°F-11.4°C 84% 7.0 mph SE11.3 kmh SE -- 30.41 in1029.8 mb 0.00 in0.0 mm 0.00 in0.0 mm 0.00 in0.0 mm
07:55 PM 14.7°F-9.6°C 11.0°F-11.7°C 85% 7.0 mph SSW11.3 kmh SSW -- 30.41 in1029.8 mb 0.00 in0.0 mm 0.00 in0.0 mm 0.00 in0.0 mm
08:00 PM 14.7°F-9.6°C 11.0°F-11.7°C 85% 6.0 mph S9.7 kmh S -- 30.41 in1029.8 mb 0.00 in0.0 mm 0.00 in0.0 mm 0.00 in0.0 mm
08:05 PM 14.8°F-9.6°C 11.1°F-11.6°C 85% 8.0 mph S12.9 kmh S -- 30.40 in1029.5 mb 0.00 in0.0 mm 0.00 in0.0 mm 0.00 in0.0 mm
08:10 PM 14.8°F-9.6°C 11.4°F-11.4°C 86% 8.0 mph S12.9 kmh S 14.0 mph22.5 kmh 30.40 in1029.5 mb 0.00 in0.0 mm 0.00 in0.0 mm 0.00 in0.0 mm
08:15 PM 14.8°F-9.6°C 11.4°F-11.4°C 86% 7.0 mph SSE11.3 kmh SSE 14.0 mph22.5 kmh 30.39 in1029.1 mb 0.00 in0.0 mm 0.00 in0.0 mm 0.00 in0.0 mm
08:20 PM 15.6°F-9.1°C 11.9°F-11.2°C 85% 9.0 mph SSE14.5 kmh SSE -- 30.39 in1029.1 mb 0.00 in0.0 mm 0.00 in0.0 mm 0.00 in0.0 mm
08:25 PM 15.7°F-9.1°C 12.0°F-11.1°C 85% 9.0 mph SE14.5 kmh SE -- 30.39 in1029.1 mb 0.00 in0.0 mm 0.00 in0.0 mm 0.00 in0.0 mm
08:30 PM 15.7°F-9.1°C 12.0°F-11.1°C 85% 5.0 mph SE8.0 kmh SE -- 30.39 in1029.1 mb 0.00 in0.0 mm 0.00 in0.0 mm 0.00 in0.0 mm
08:35 PM 15.7°F-9.1°C 12.0°F-11.1°C 85% 6.0 mph SE9.7 kmh SE -- 30.39 in1029.1 mb 0.00 in0.0 mm 0.00 in0.0 mm 0.00 in0.0 mm
08:40 PM 15.7°F-9.1°C 12.0°F-11.1°C 85% 5.0 mph SE8.0 kmh SE -- 30.39 in1029.1 mb 0.00 in0.0 mm 0.00 in0.0 mm 0.00 in0.0 mm
08:45 PM 15.7°F-9.1°C 12.0°F-11.1°C 85% 8.0 mph S12.9 kmh S -- 30.38 in1028.8 mb 0.00 in0.0 mm 0.00 in0.0 mm 0.00 in0.0 mm
08:50 PM 15.7°F-9.1°C 12.0°F-11.1°C 85% 6.0 mph SE9.7 kmh SE -- 30.38 in1028.8 mb 0.00 in0.0 mm 0.00 in0.0 mm 0.00 in0.0 mm
08:55 PM 15.8°F-9.0°C 12.1°F-11.1°C 85% 9.0 mph SE14.5 kmh SE -- 30.37 in1028.4 mb 0.00 in0.0 mm 0.00 in0.0 mm 0.00 in0.0 mm
09:00 PM 15.8°F-9.0°C 12.1°F-11.1°C 85% 6.0 mph SSE9.7 kmh SSE 13.0 mph20.9 kmh 30.37 in1028.4 mb 0.00 in0.0 mm 0.00 in0.0 mm 0.00 in0.0 mm
09:05 PM 15.8°F-9.0°C 12.4°F-10.9°C 86% 11.0 mph SE17.7 kmh SE 13.0 mph20.9 kmh 30.37 in1028.4 mb 0.00 in0.0 mm 0.00 in0.0 mm 0.00 in0.0 mm
09:10 PM 15.8°F-9.0°C 12.4°F-10.9°C 86% 5.0 mph SE8.0 kmh SE -- 30.37 in1028.4 mb 0.00 in0.0 mm 0.00 in0.0 mm 0.00 in0.0 mm
09:15 PM 15.9°F-8.9°C 12.5°F-10.8°C 86% 4.0 mph SE6.4 kmh SE -- 30.37 in1028.4 mb 0.00 in0.0 mm 0.00 in0.0 mm 0.00 in0.0 mm
09:20 PM 15.9°F-8.9°C 12.5°F-10.8°C 86% 4.0 mph SSE6.4 kmh SSE -- 30.36 in1028.1 mb 0.00 in0.0 mm 0.00 in0.0 mm 0.00 in0.0 mm
09:25 PM 15.9°F-8.9°C 12.5°F-10.8°C 86% 6.0 mph SE9.7 kmh SE -- 30.36 in1028.1 mb 0.00 in0.0 mm 0.00 in0.0 mm 0.00 in0.0 mm
09:30 PM 16.0°F-8.9°C 12.6°F-10.8°C 86% 8.0 mph SE12.9 kmh SE -- 30.36 in1028.1 mb 0.00 in0.0 mm 0.00 in0.0 mm 0.00 in0.0 mm
09:35 PM 16.1°F-8.8°C 12.7°F-10.7°C 86% 6.0 mph SE9.7 kmh SE -- 30.36 in1028.1 mb 0.00 in0.0 mm 0.00 in0.0 mm 0.00 in0.0 mm
09:40 PM 16.1°F-8.8°C 12.7°F-10.7°C 86% 3.0 mph SE4.8 kmh SE -- 30.36 in1028.1 mb 0.00 in0.0 mm 0.00 in0.0 mm 0.00 in0.0 mm
09:45 PM 16.2°F-8.8°C 12.8°F-10.7°C 86% 6.0 mph SE9.7 kmh SE -- 30.36 in1028.1 mb 0.00 in0.0 mm 0.00 in0.0 mm 0.00 in0.0 mm
09:50 PM 16.2°F-8.8°C 12.8°F-10.7°C 86% 9.0 mph ESE14.5 kmh ESE 11.0 mph17.7 kmh 30.36 in1028.1 mb 0.00 in0.0 mm 0.00 in0.0 mm 0.00 in0.0 mm
09:55 PM 16.3°F-8.7°C 12.9°F-10.6°C 86% 6.0 mph SE9.7 kmh SE 11.0 mph17.7 kmh 30.36 in1028.1 mb 0.00 in0.0 mm 0.00 in0.0 mm 0.00 in0.0 mm
10:00 PM 16.4°F-8.7°C 13.0°F-10.6°C 86% 8.0 mph SE12.9 kmh SE -- 30.35 in1027.8 mb 0.00 in0.0 mm 0.00 in0.0 mm 0.00 in0.0 mm
10:05 PM 16.4°F-8.7°C 13.0°F-10.6°C 86% 8.0 mph ESE12.9 kmh ESE -- 30.35 in1027.8 mb 0.00 in0.0 mm 0.00 in0.0 mm 0.00 in0.0 mm
10:10 PM 16.5°F-8.6°C 13.1°F-10.5°C 86% 5.0 mph SE8.0 kmh SE -- 30.35 in1027.8 mb 0.00 in0.0 mm 0.00 in0.0 mm 0.00 in0.0 mm
10:15 PM 16.5°F-8.6°C 13.1°F-10.5°C 86% 6.0 mph SE9.7 kmh SE -- 30.35 in1027.8 mb 0.00 in0.0 mm 0.00 in0.0 mm 0.00 in0.0 mm
10:20 PM 16.6°F-8.6°C 13.2°F-10.4°C 86% 6.0 mph SE9.7 kmh SE -- 30.34 in1027.4 mb 0.00 in0.0 mm 0.00 in0.0 mm 0.00 in0.0 mm
10:25 PM 16.6°F-8.6°C 13.2°F-10.4°C 86% 7.0 mph SE11.3 kmh SE -- 30.34 in1027.4 mb 0.00 in0.0 mm 0.00 in0.0 mm 0.00 in0.0 mm
10:30 PM 16.7°F-8.5°C 13.3°F-10.4°C 86% 4.0 mph SE6.4 kmh SE -- 30.34 in1027.4 mb 0.00 in0.0 mm 0.00 in0.0 mm 0.00 in0.0 mm
10:35 PM 16.8°F-8.4°C 13.4°F-10.3°C 86% 8.0 mph SSE12.9 kmh SSE -- 30.34 in1027.4 mb 0.00 in0.0 mm 0.00 in0.0 mm 0.00 in0.0 mm
10:40 PM 16.8°F-8.4°C 13.6°F-10.2°C 87% 7.0 mph SE11.3 kmh SE 11.0 mph17.7 kmh 30.34 in1027.4 mb 0.00 in0.0 mm 0.00 in0.0 mm 0.00 in0.0 mm
10:45 PM 17.0°F-8.3°C 13.8°F-10.1°C 87% 4.0 mph ESE6.4 kmh ESE 11.0 mph17.7 kmh 30.34 in1027.4 mb 0.00 in0.0 mm 0.00 in0.0 mm 0.00 in0.0 mm
10:50 PM 17.1°F-8.3°C 13.9°F-10.1°C 87% 6.0 mph SE9.7 kmh SE -- 30.34 in1027.4 mb 0.00 in0.0 mm 0.00 in0.0 mm 0.00 in0.0 mm
10:55 PM 17.1°F-8.3°C 13.9°F-10.1°C 87% 5.0 mph SE8.0 kmh SE -- 30.34 in1027.4 mb 0.00 in0.0 mm 0.00 in0.0 mm 0.00 in0.0 mm
11:00 PM 17.2°F-8.2°C 14.0°F-10.0°C 87% 8.0 mph SE12.9 kmh SE -- 30.34 in1027.4 mb 0.00 in0.0 mm 0.00 in0.0 mm 0.00 in0.0 mm
11:05 PM 17.2°F-8.2°C 14.0°F-10.0°C 87% 4.0 mph SE6.4 kmh SE -- 30.34 in1027.4 mb 0.00 in0.0 mm 0.00 in0.0 mm 0.00 in0.0 mm
11:10 PM 17.2°F-8.2°C 14.0°F-10.0°C 87% 7.0 mph SE11.3 kmh SE -- 30.34 in1027.4 mb 0.00 in0.0 mm 0.00 in0.0 mm 0.00 in0.0 mm
11:15 PM 17.3°F-8.2°C 14.4°F-9.8°C 88% 8.0 mph SE12.9 kmh SE -- 30.33 in1027.1 mb 0.00 in0.0 mm 0.00 in0.0 mm 0.00 in0.0 mm
11:20 PM 17.3°F-8.2°C 14.4°F-9.8°C 88% 7.0 mph SE11.3 kmh SE -- 30.33 in1027.1 mb 0.00 in0.0 mm 0.00 in0.0 mm 0.00 in0.0 mm
11:25 PM 17.3°F-8.2°C 14.4°F-9.8°C 88% 6.0 mph S9.7 kmh S -- 30.33 in1027.1 mb 0.00 in0.0 mm 0.00 in0.0 mm 0.00 in0.0 mm
11:30 PM 17.3°F-8.2°C 14.4°F-9.8°C 88% 8.0 mph SE12.9 kmh SE 14.0 mph22.5 kmh 30.33 in1027.1 mb 0.00 in0.0 mm 0.00 in0.0 mm 0.00 in0.0 mm
11:35 PM 17.4°F-8.1°C 14.5°F-9.7°C 88% 8.0 mph SE12.9 kmh SE 14.0 mph22.5 kmh 30.32 in1026.8 mb 0.00 in0.0 mm 0.00 in0.0 mm 0.00 in0.0 mm
11:40 PM 17.4°F-8.1°C 14.5°F-9.7°C 88% 8.0 mph E12.9 kmh E -- 30.32 in1026.8 mb 0.00 in0.0 mm 0.00 in0.0 mm 0.00 in0.0 mm
11:45 PM 17.5°F-8.1°C 14.6°F-9.7°C 88% 7.0 mph SE11.3 kmh SE -- 30.32 in1026.8 mb 0.00 in0.0 mm 0.00 in0.0 mm 0.00 in0.0 mm
11:50 PM 17.5°F-8.1°C 14.6°F-9.7°C 88% 7.0 mph SE11.3 kmh SE -- 30.32 in1026.8 mb 0.00 in0.0 mm 0.00 in0.0 mm 0.00 in0.0 mm
11:55 PM 17.5°F-8.1°C 14.6°F-9.7°C 88% 5.0 mph SE8.0 kmh SE -- 30.32 in1026.8 mb 0.00 in0.0 mm 0.00 in0.0 mm 0.00 in0.0 mm